createdAt,value
2019-05-23T00:01:34.020Z,99989.98
2019-05-23T00:05:04.401Z,99993.38
2019-05-23T00:08:29.344Z,99998.50
2019-05-23T00:11:44.858Z,100000.08
2019-05-23T00:15:13.416Z,100003.17
2019-05-23T00:18:21.291Z,99993.48
2019-05-23T00:21:25.944Z,99997.85
2019-05-23T00:24:31.894Z,100005.38
2019-05-23T00:27:37.965Z,100001.56
2019-05-23T00:30:53.666Z,99998.31
2019-05-23T00:33:59.896Z,99996.47
2019-05-23T00:37:07.190Z,99995.89
2019-05-23T00:40:13.541Z,99996.16
2019-05-23T00:43:19.962Z,99993.30
2019-05-23T00:46:26.331Z,99988.64
2019-05-23T00:49:32.149Z,99985.57
2019-05-23T00:52:38.249Z,99987.17
2019-05-23T00:55:44.839Z,99989.16
2019-05-23T00:58:51.677Z,99991.50
2019-05-23T01:01:58.011Z,99989.73
2019-05-23T01:05:04.600Z,99993.45
2019-05-23T01:08:11.467Z,99995.74
2019-05-23T01:11:21.563Z,99994.66
2019-05-23T01:14:28.607Z,99983.80
2019-05-23T01:17:35.753Z,99985.70
2019-05-23T01:20:59.958Z,99985.96
2019-05-23T01:24:12.424Z,99983.28
2019-05-23T01:27:18.561Z,99983.27
2019-05-23T01:30:28.138Z,99979.89
2019-05-23T01:33:34.281Z,99980.33
2019-05-23T01:36:40.269Z,99982.84
2019-05-23T01:39:45.787Z,99981.54
2019-05-23T01:42:51.624Z,99982.62
2019-05-23T01:45:56.793Z,99989.59
2019-05-23T01:49:03.345Z,99988.77
2019-05-23T01:52:08.928Z,99989.64
2019-05-23T01:55:14.355Z,99991.06
2019-05-23T01:58:20.012Z,99995.52
2019-05-23T02:01:25.669Z,99991.02
2019-05-23T02:04:31.509Z,99998.08
2019-05-23T02:07:37.998Z,99996.73
2019-05-23T02:10:43.562Z,100000.03
2019-05-23T02:13:48.709Z,100001.84
2019-05-23T02:16:54.590Z,99999.23
2019-05-23T02:20:01.654Z,100000.99
2019-05-23T02:23:07.269Z,99991.95
2019-05-23T02:26:12.934Z,99988.94
2019-05-23T02:29:18.883Z,99988.32
2019-05-23T02:32:26.349Z,99988.23
2019-05-23T02:35:33.394Z,99984.33
2019-05-23T02:39:12.577Z,99983.05
2019-05-23T02:42:27.767Z,99981.84
2019-05-23T02:45:46.756Z,99979.34
2019-05-23T02:48:52.642Z,99982.67
2019-05-23T02:52:00.229Z,99980.64
2019-05-23T02:55:09.822Z,99977.83
2019-05-23T02:58:36.479Z,99978.78
2019-05-23T03:02:30.255Z,99978.69
2019-05-23T03:05:37.242Z,99983.86
2019-05-23T03:08:44.046Z,99981.55
2019-05-23T03:11:52.576Z,99981.22
2019-05-23T03:15:01.392Z,99976.61
2019-05-23T03:18:07.471Z,99979.72
2019-05-23T03:21:13.630Z,99978.32
2019-05-23T03:24:20.154Z,99981.27
2019-05-23T03:27:26.519Z,99983.67
2019-05-23T03:30:33.505Z,99980.03
2019-05-23T03:33:38.894Z,99982.33
2019-05-23T03:36:44.269Z,99979.20
2019-05-23T03:39:51.292Z,99987.16
2019-05-23T03:42:57.010Z,99986.20
2019-05-23T03:46:06.322Z,99981.27
2019-05-23T03:49:11.749Z,99984.28
2019-05-23T03:52:19.133Z,99985.11
2019-05-23T03:55:24.958Z,99983.19
2019-05-23T03:58:31.915Z,99982.30
2019-05-23T04:01:47.661Z,99981.11
2019-05-23T04:04:45.692Z,99987.84
2019-05-23T04:07:51.557Z,99979.30
2019-05-23T04:10:57.696Z,99973.93
2019-05-23T04:14:03.520Z,99981.33
2019-05-23T04:17:08.919Z,99976.35
2019-05-23T04:20:14.581Z,99973.19
2019-05-23T04:23:19.997Z,99974.70
2019-05-23T04:26:25.085Z,99982.77
2019-05-23T04:29:32.033Z,99974.92
2019-05-23T04:32:37.286Z,99976.44
2019-05-23T04:35:42.573Z,99983.45
2019-05-23T04:38:48.870Z,99977.27
2019-05-23T04:41:54.161Z,99984.19
2019-05-23T04:44:59.303Z,99974.58
2019-05-23T04:48:04.752Z,99979.25
2019-05-23T04:51:10.845Z,99978.42
2019-05-23T04:54:17.155Z,99977.34
2019-05-23T04:57:24.370Z,99979.52
2019-05-23T05:00:31.182Z,99981.05
2019-05-23T05:03:37.771Z,99979.09
2019-05-23T05:06:43.599Z,99978.27
2019-05-23T05:09:49.429Z,99973.19
2019-05-23T05:12:55.118Z,99973.39
2019-05-23T05:16:00.340Z,99972.16
2019-05-23T05:19:06.130Z,99977.34
2019-05-23T05:22:11.503Z,99975.80
2019-05-23T05:25:17.432Z,99977.17
2019-05-23T05:28:22.788Z,99973.50
2019-05-23T05:31:28.022Z,99980.56
2019-05-23T05:34:33.216Z,99978.77
2019-05-23T05:37:38.428Z,99975.52
2019-05-23T05:40:43.592Z,99985.84
2019-05-23T05:43:49.075Z,99985.50
2019-05-23T05:46:54.197Z,99992.55
2019-05-23T05:50:00.033Z,100002.22
2019-05-23T05:53:05.241Z,99997.66
2019-05-23T05:56:11.197Z,100000.75
2019-05-23T05:59:17.974Z,100006.66
2019-05-23T06:02:25.654Z,100003.25
2019-05-23T06:05:41.759Z,100003.66
2019-05-23T06:08:48.615Z,100006.06
2019-05-23T06:11:53.871Z,100009.38
2019-05-23T06:15:00.154Z,100013.42
2019-05-23T06:18:06.524Z,100005.41
2019-05-23T06:21:14.192Z,100006.45
2019-05-23T06:24:37.786Z,100005.59
2019-05-23T06:27:26.077Z,100008.87
2019-05-23T06:30:33.097Z,100010.96
2019-05-23T06:33:38.391Z,100008.41
2019-05-23T06:36:43.710Z,100005.73
2019-05-23T06:39:49.157Z,100000.31
2019-05-23T06:42:54.448Z,100004.70
2019-05-23T06:45:59.628Z,100004.94
2019-05-23T06:49:05.234Z,100007.56
2019-05-23T06:52:10.485Z,99998.19
2019-05-23T06:55:15.827Z,99999.49
2019-05-23T06:58:21.376Z,100008.48
2019-05-23T07:01:27.066Z,100006.06
2019-05-23T07:04:32.389Z,100008.63
2019-05-23T07:07:39.777Z,100005.52
2019-05-23T07:10:45.244Z,100005.63
2019-05-23T07:13:50.733Z,100000.12
2019-05-23T07:16:55.932Z,100012.55
2019-05-23T07:20:01.269Z,100009.63
2019-05-23T07:23:09.248Z,100007.59
2019-05-23T07:26:14.788Z,100010.16
2019-05-23T07:29:21.186Z,100003.53
2019-05-23T07:32:26.427Z,100003.86
2019-05-23T07:35:31.920Z,100007.67
2019-05-23T07:38:37.170Z,100007.30
2019-05-23T07:41:42.343Z,100009.53
2019-05-23T07:44:49.169Z,100006.98
2019-05-23T07:47:55.136Z,100003.12
2019-05-23T07:51:00.292Z,99997.72
2019-05-23T07:54:23.470Z,100000.41
2019-05-23T07:57:29.116Z,99994.93
2019-05-23T08:00:38.780Z,99992.72
2019-05-23T08:03:46.342Z,99992.30
2019-05-23T08:06:52.401Z,99992.86
2019-05-23T08:09:57.659Z,99985.61
2019-05-23T08:13:03.330Z,99986.22
2019-05-23T08:16:08.590Z,99986.88
2019-05-23T08:19:19.207Z,99980.60
2019-05-23T08:22:21.677Z,99978.48
2019-05-23T08:25:27.218Z,99976.20
2019-05-23T08:28:33.437Z,99973.19
2019-05-23T08:31:38.666Z,99976.02
2019-05-23T08:34:43.816Z,99971.31
2019-05-23T08:37:49.106Z,99975.66
2019-05-23T08:40:56.112Z,99971.47
2019-05-23T08:44:01.618Z,99962.57
2019-05-23T08:47:08.346Z,99973.67
2019-05-23T08:50:14.264Z,99965.23
2019-05-23T08:53:19.489Z,99963.87
2019-05-23T08:56:25.004Z,99953.53
2019-05-23T08:59:30.384Z,99956.75
2019-05-23T09:02:35.919Z,99948.05
2019-05-23T09:05:41.452Z,99951.60
2019-05-23T09:08:47.283Z,99943.38
2019-05-23T09:11:53.142Z,99939.58
2019-05-23T09:14:58.504Z,99938.42
2019-05-23T09:18:04.135Z,99936.71
2019-05-23T09:21:09.737Z,99932.16
2019-05-23T09:24:15.946Z,99931.82
2019-05-23T09:27:21.132Z,99929.17
2019-05-23T09:30:27.680Z,99927.44
2019-05-23T09:33:33.166Z,99919.49
2019-05-23T09:36:38.464Z,99926.88
2019-05-23T09:39:44.198Z,99926.45
2019-05-23T09:42:49.469Z,99926.00
2019-05-23T09:45:54.558Z,99918.64
2019-05-23T09:48:59.780Z,99918.89
2019-05-23T09:52:06.585Z,99919.47
2019-05-23T09:55:12.066Z,99922.44
2019-05-23T09:58:17.341Z,99923.41
2019-05-23T10:01:22.536Z,99921.38
2019-05-23T10:04:27.849Z,99914.85
2019-05-23T10:07:32.983Z,99913.51
2019-05-23T10:10:38.183Z,99901.50
2019-05-23T10:13:43.300Z,99905.52
2019-05-23T10:16:48.631Z,99908.86
2019-05-23T10:19:54.918Z,99907.22
2019-05-23T10:23:00.051Z,99904.67
2019-05-23T10:26:06.232Z,99899.08
2019-05-23T10:29:12.478Z,99899.36
2019-05-23T10:32:18.037Z,99891.18
2019-05-23T10:35:24.123Z,99891.67
2019-05-23T10:38:29.725Z,99892.22
2019-05-23T10:41:35.156Z,99886.41
2019-05-23T10:44:40.319Z,99881.61
2019-05-23T10:47:47.242Z,99881.00
2019-05-23T10:50:53.240Z,99884.78
2019-05-23T10:53:58.598Z,99884.77
2019-05-23T10:57:03.869Z,99880.00
2019-05-23T11:00:11.453Z,99874.78
2019-05-23T11:03:17.547Z,99870.17
2019-05-23T11:06:22.630Z,99869.75
2019-05-23T11:09:37.230Z,99866.10
2019-05-23T11:12:34.784Z,99863.27
2019-05-23T11:15:40.316Z,99861.69
2019-05-23T11:18:47.740Z,99854.25
2019-05-23T11:24:57.323Z,99856.50
2019-05-23T11:28:04.944Z,99856.09
2019-05-23T11:31:10.606Z,99850.64
2019-05-23T11:34:16.045Z,99844.59
2019-05-23T11:37:21.344Z,99843.78
2019-05-23T11:40:26.542Z,99842.13
2019-05-23T11:43:31.835Z,99841.51
2019-05-23T11:46:38.017Z,99838.86
2019-05-23T11:49:44.645Z,99839.59
2019-05-23T11:52:50.573Z,99842.72
2019-05-23T11:55:56.002Z,99828.10
2019-05-23T11:59:02.017Z,99827.77
2019-05-23T12:02:38.412Z,99825.94
2019-05-23T12:05:44.027Z,99826.52
2019-05-23T12:08:49.331Z,99823.29
2019-05-23T12:11:54.485Z,99822.02
2019-05-23T12:14:59.902Z,99825.47
2019-05-23T12:18:07.238Z,99821.09
2019-05-23T12:21:12.532Z,99817.48
2019-05-23T12:24:17.680Z,99810.21
2019-05-23T12:27:22.875Z,99809.35
2019-05-23T12:30:28.696Z,99810.30
2019-05-23T12:33:34.365Z,99810.70
2019-05-23T12:36:40.193Z,99805.33
2019-05-23T12:39:45.443Z,99801.15
2019-05-23T12:42:50.653Z,99798.39
2019-05-23T12:45:55.825Z,99793.31
2019-05-23T12:49:16.040Z,99794.57
2019-05-23T12:52:21.720Z,99792.23
2019-05-23T12:55:27.016Z,99784.47
2019-05-23T12:58:34.150Z,99783.69
2019-05-23T13:01:41.892Z,99779.17
2019-05-23T13:04:47.303Z,99784.47
2019-05-23T13:07:52.460Z,99774.23
2019-05-23T13:10:57.625Z,99771.91
2019-05-23T13:14:02.858Z,99771.86
2019-05-23T13:17:07.930Z,99777.26
2019-05-23T13:20:13.482Z,99771.52
2019-05-23T13:23:21.150Z,99771.25
2019-05-23T13:26:25.621Z,99769.95
2019-05-23T13:29:31.059Z,99752.61
2019-05-23T13:32:36.226Z,99754.96
2019-05-23T13:35:42.030Z,99749.13
2019-05-23T13:38:47.807Z,99745.53
2019-05-23T13:41:53.137Z,99746.70
2019-05-23T13:44:58.952Z,99743.95
2019-05-23T13:48:04.691Z,99745.09
2019-05-23T13:51:09.835Z,99741.05
2019-05-23T13:54:14.995Z,99739.44
2019-05-23T13:57:20.317Z,99741.83
2019-05-23T14:00:27.768Z,99743.45
2019-05-23T14:03:32.925Z,99740.09
2019-05-23T14:06:40.594Z,99732.01
2019-05-23T14:09:45.887Z,99736.39
2019-05-23T14:12:52.279Z,99735.59
2019-05-23T14:15:57.431Z,99736.03
2019-05-23T14:19:03.162Z,99725.43
2019-05-23T14:22:08.455Z,99720.52
2019-05-23T14:25:14.347Z,99716.05
2019-05-23T14:28:20.537Z,99714.45
2019-05-23T14:31:25.960Z,99717.39
2019-05-23T14:34:31.693Z,99714.13
2019-05-23T14:37:42.785Z,99708.45
2019-05-23T14:40:49.219Z,99705.98
2019-05-23T14:43:54.514Z,99706.55
2019-05-23T14:47:18.650Z,99703.28
2019-05-23T14:50:58.007Z,99694.33
2019-05-23T14:54:17.912Z,99693.77
2019-05-23T14:57:23.411Z,99690.23
2019-05-23T15:00:29.515Z,99687.22
2019-05-23T15:03:35.819Z,99677.59
2019-05-23T15:06:41.738Z,99678.44
2019-05-23T15:09:47.426Z,99678.36
2019-05-23T15:12:52.683Z,99676.64
2019-05-23T15:15:57.815Z,99672.75
2019-05-23T15:19:03.320Z,99670.81
2019-05-23T15:22:08.670Z,99663.91
2019-05-23T15:25:14.003Z,99666.78
2019-05-23T15:28:19.252Z,99662.49
2019-05-23T15:31:25.266Z,99656.36
2019-05-23T15:34:30.589Z,99660.59
2019-05-23T15:37:35.882Z,99656.22
2019-05-23T15:40:41.473Z,99652.69
2019-05-23T15:43:46.907Z,99656.45
2019-05-23T15:46:52.401Z,99651.09
2019-05-23T15:49:59.705Z,99658.84
2019-05-23T15:53:25.077Z,99655.43
2019-05-23T15:56:46.762Z,99647.02
2019-05-23T16:00:12.080Z,99638.25
2019-05-23T16:03:26.906Z,99642.23
2019-05-23T16:06:33.153Z,99639.95
2019-05-23T16:09:38.440Z,99634.37
2019-05-23T16:12:43.922Z,99634.20
2019-05-23T16:15:50.555Z,99631.76
2019-05-23T16:18:55.892Z,99633.00
2019-05-23T16:22:01.105Z,99631.03
2019-05-23T16:25:06.615Z,99625.97
2019-05-23T16:28:12.994Z,99626.56
2019-05-23T16:31:19.374Z,99628.81
2019-05-23T16:34:24.458Z,99624.28
2019-05-23T16:37:29.695Z,99622.13
2019-05-23T16:40:34.990Z,99624.17
2019-05-23T16:43:40.304Z,99628.67
2019-05-23T16:46:45.720Z,99622.55
2019-05-23T16:49:51.945Z,99624.08
2019-05-23T16:52:57.097Z,99627.28
2019-05-23T16:56:07.977Z,99616.19
2019-05-23T16:59:21.894Z,99619.67
2019-05-23T17:02:48.808Z,99612.31
2019-05-23T17:06:13.925Z,99616.21
2019-05-23T17:09:31.781Z,99617.67
2019-05-23T17:12:47.009Z,99615.44
2019-05-23T17:15:58.182Z,99621.01
2019-05-23T17:19:19.665Z,99617.89
2019-05-23T17:23:02.126Z,99622.67
2019-05-23T17:26:12.614Z,99620.45
2019-05-23T17:29:29.412Z,99614.45
2019-05-23T17:32:35.648Z,99623.01
2019-05-23T17:35:41.017Z,99625.98
2019-05-23T17:38:46.514Z,99612.02
2019-05-23T17:41:51.905Z,99609.47
2019-05-23T17:44:57.160Z,99606.03
2019-05-23T17:48:02.434Z,99604.50
2019-05-23T17:51:07.672Z,99608.93
2019-05-23T17:54:13.322Z,99603.27
2019-05-23T17:57:18.534Z,99604.09
2019-05-23T18:00:27.229Z,99606.39
2019-05-23T18:03:32.938Z,99604.51
2019-05-23T18:06:38.673Z,99603.14
2019-05-23T18:09:43.815Z,99608.38
2019-05-23T18:12:49.346Z,99610.63
2019-05-23T18:15:55.519Z,99604.63
2019-05-23T18:19:00.919Z,99614.48
2019-05-23T18:22:08.451Z,99608.17
2019-05-23T18:25:15.497Z,99609.56
2019-05-23T18:28:22.827Z,99608.44
2019-05-23T18:31:29.613Z,99611.71
2019-05-23T18:34:35.690Z,99610.63
2019-05-23T18:37:41.868Z,99607.08
2019-05-23T18:41:01.526Z,99607.59
2019-05-23T18:43:55.124Z,99609.20
2019-05-23T18:47:02.393Z,99611.06
2019-05-23T18:50:09.799Z,99618.38
2019-05-23T18:53:15.682Z,99614.16
2019-05-23T18:56:21.054Z,99614.88
2019-05-23T18:59:27.252Z,99618.53
2019-05-23T19:02:32.558Z,99615.48
2019-05-23T19:05:37.917Z,99620.18
2019-05-23T19:08:43.063Z,99619.70
2019-05-23T19:11:48.398Z,99627.69
2019-05-23T19:14:53.595Z,99623.62
2019-05-23T19:17:58.737Z,99630.48
2019-05-23T19:21:04.125Z,99631.38
2019-05-23T19:24:09.395Z,99628.79
2019-05-23T19:27:15.555Z,99641.55
2019-05-23T19:30:21.383Z,99637.67
2019-05-23T19:33:27.211Z,99643.36
2019-05-23T19:36:32.754Z,99645.45
2019-05-23T19:39:39.435Z,99640.09
2019-05-23T19:42:44.615Z,99637.38
2019-05-23T19:45:49.803Z,99645.67
2019-05-23T19:48:57.448Z,99642.39
2019-05-23T19:52:03.416Z,99645.08
2019-05-23T19:55:09.123Z,99640.02
2019-05-23T19:58:14.809Z,99640.41
2019-05-23T20:01:20.616Z,99636.09
2019-05-23T20:04:31.288Z,99640.70
2019-05-23T20:07:37.290Z,99639.06
2019-05-23T20:10:45.168Z,99643.44
2019-05-23T20:13:50.419Z,99636.95
2019-05-23T20:16:55.673Z,99640.19
2019-05-23T20:20:00.842Z,99642.56
2019-05-23T20:23:07.995Z,99643.80
2019-05-23T20:26:13.144Z,99648.97
2019-05-23T20:29:18.416Z,99643.14
2019-05-23T20:32:23.616Z,99645.60
2019-05-23T20:35:28.882Z,99643.71
2019-05-23T20:38:34.414Z,99646.00
2019-05-23T20:41:39.960Z,99651.33
2019-05-23T20:44:45.071Z,99646.83
2019-05-23T20:47:50.396Z,99635.73
2019-05-23T20:50:55.669Z,99646.80
2019-05-23T20:54:00.815Z,99647.95
2019-05-23T20:57:06.099Z,99644.80
2019-05-23T21:00:13.092Z,99643.48
2019-05-23T21:03:18.841Z,99643.75
2019-05-23T21:06:23.994Z,99640.66
2019-05-23T21:09:29.140Z,99638.62
2019-05-23T21:12:34.277Z,99637.34
2019-05-23T21:15:41.009Z,99643.07
2019-05-23T21:18:49.724Z,99643.81
2019-05-23T21:21:53.235Z,99645.48
2019-05-23T21:24:58.374Z,99654.78
2019-05-23T21:28:03.598Z,99646.38
2019-05-23T21:31:14.238Z,99650.81
2019-05-23T21:34:22.071Z,99658.31
2019-05-23T21:37:26.269Z,99647.88
2019-05-23T21:40:53.099Z,99646.55
2019-05-23T21:43:59.210Z,99648.65
2019-05-23T21:47:04.372Z,99653.13
2019-05-23T21:50:09.725Z,99651.01
2019-05-23T21:53:14.965Z,99647.61
2019-05-23T21:56:20.164Z,99654.15
2019-05-23T21:59:25.294Z,99646.55
2019-05-23T22:02:33.391Z,99650.80
2019-05-23T22:05:38.520Z,99645.84
2019-05-23T22:08:44.168Z,99640.00
2019-05-23T22:11:49.992Z,99637.30
2019-05-23T22:14:55.611Z,99637.88
2019-05-23T22:18:00.767Z,99642.17
2019-05-23T22:21:06.070Z,99637.22
2019-05-23T22:24:11.939Z,99639.77
2019-05-23T22:27:17.265Z,99633.30
2019-05-23T22:30:22.738Z,99636.99
2019-05-23T22:33:30.430Z,99632.42
2019-05-23T22:36:35.631Z,99621.91
2019-05-23T22:39:40.806Z,99620.20
2019-05-23T22:42:46.010Z,99619.65
2019-05-23T22:45:51.146Z,99632.06
2019-05-23T22:48:56.316Z,99628.72
2019-05-23T22:52:01.478Z,99632.91
2019-05-23T22:55:07.923Z,99628.48
2019-05-23T22:58:13.123Z,99623.30
2019-05-23T23:01:18.741Z,99620.95
2019-05-23T23:04:26.455Z,99622.98
2019-05-23T23:07:31.706Z,99626.64
2019-05-23T23:10:37.098Z,99624.04
2019-05-23T23:13:42.442Z,99621.20
2019-05-23T23:16:47.882Z,99615.52
2019-05-23T23:19:53.417Z,99619.08
2019-05-23T23:22:58.549Z,99619.51
2019-05-23T23:26:03.706Z,99620.48
2019-05-23T23:29:09.021Z,99616.15
2019-05-23T23:32:14.219Z,99626.09
2019-05-23T23:35:19.447Z,99621.33
2019-05-23T23:38:24.700Z,99624.75
2019-05-23T23:41:29.837Z,99620.33
2019-05-23T23:44:34.200Z,99619.03
2019-05-23T23:47:57.250Z,99628.30
2019-05-23T23:51:20.381Z,99622.59
2019-05-23T23:54:43.439Z,99623.47
2019-05-23T23:57:59.704Z,99619.27
